sensor_id;sensor_type;location;lat;lon;timestamp;pressure;altitude;pressure_sealevel;temperature;humidity
58927;BME280;44712;52.530;9.760;2022-07-24T00:02:19;101489.22;;;13.00;83.23
58927;BME280;44712;52.530;9.760;2022-07-24T00:04:50;101483.81;;;12.98;83.88
58927;BME280;44712;52.530;9.760;2022-07-24T00:07:19;101482.06;;;12.94;83.24
58927;BME280;44712;52.530;9.760;2022-07-24T00:09:46;101479.41;;;12.86;83.67
58927;BME280;44712;52.530;9.760;2022-07-24T00:12:13;101486.72;;;12.83;84.31
58927;BME280;44712;52.530;9.760;2022-07-24T00:14:39;101481.34;;;12.77;84.51
58927;BME280;44712;52.530;9.760;2022-07-24T00:17:06;101479.59;;;12.69;84.43
58927;BME280;44712;52.530;9.760;2022-07-24T00:19:33;101487.78;;;12.65;84.16
58927;BME280;44712;52.530;9.760;2022-07-24T00:22:03;101491.44;;;12.61;84.93
58927;BME280;44712;52.530;9.760;2022-07-24T00:24:29;101494.13;;;12.62;85.02
58927;BME280;44712;52.530;9.760;2022-07-24T00:26:56;101490.56;;;12.60;85.15
58927;BME280;44712;52.530;9.760;2022-07-24T00:29:23;101490.50;;;12.63;85.10
58927;BME280;44712;52.530;9.760;2022-07-24T00:31:49;101483.28;;;12.62;85.03
58927;BME280;44712;52.530;9.760;2022-07-24T00:34:16;101488.75;;;12.59;84.72
58927;BME280;44712;52.530;9.760;2022-07-24T00:36:43;101488.78;;;12.53;84.86
58927;BME280;44712;52.530;9.760;2022-07-24T00:39:10;101487.03;;;12.49;85.20
58927;BME280;44712;52.530;9.760;2022-07-24T00:41:38;101488.91;;;12.41;85.17
58927;BME280;44712;52.530;9.760;2022-07-24T00:44:13;101495.25;;;12.39;85.84
58927;BME280;44712;52.530;9.760;2022-07-24T00:46:42;101487.19;;;12.33;85.79
58927;BME280;44712;52.530;9.760;2022-07-24T00:49:15;101486.34;;;12.22;85.91
58927;BME280;44712;52.530;9.760;2022-07-24T00:51:50;101488.19;;;12.20;86.47
58927;BME280;44712;52.530;9.760;2022-07-24T00:54:19;101489.09;;;12.19;86.71
58927;BME280;44712;52.530;9.760;2022-07-24T00:56:48;101487.25;;;12.21;86.83
58927;BME280;44712;52.530;9.760;2022-07-24T00:59:15;101482.78;;;12.14;86.76
58927;BME280;44712;52.530;9.760;2022-07-24T01:01:42;101481.91;;;12.09;87.16
58927;BME280;44712;52.530;9.760;2022-07-24T01:04:09;101487.38;;;12.02;87.45
58927;BME280;44712;52.530;9.760;2022-07-24T01:06:45;101476.56;;;11.93;87.00
58927;BME280;44712;52.530;9.760;2022-07-24T01:09:12;101482.00;;;11.90;87.83
58927;BME280;44712;52.530;9.760;2022-07-24T01:11:40;101471.19;;;11.87;87.90
58927;BME280;44712;52.530;9.760;2022-07-24T01:14:11;101475.72;;;11.88;87.58
58927;BME280;44712;52.530;9.760;2022-07-24T01:16:38;101478.41;;;11.89;87.71
58927;BME280;44712;52.530;9.760;2022-07-24T01:19:05;101474.84;;;11.80;87.29
58927;BME280;44712;52.530;9.760;2022-07-24T01:21:32;101474.91;;;11.70;87.74
58927;BME280;44712;52.530;9.760;2022-07-24T01:23:59;101470.41;;;11.66;88.44
58927;BME280;44712;52.530;9.760;2022-07-24T01:26:26;101471.34;;;11.65;89.03
58927;BME280;44712;52.530;9.760;2022-07-24T01:28:53;101465.91;;;11.65;89.24
58927;BME280;44712;52.530;9.760;2022-07-24T01:31:20;101473.13;;;11.63;89.30
58927;BME280;44712;52.530;9.760;2022-07-24T01:33:47;101465.91;;;11.65;88.86
58927;BME280;44712;52.530;9.760;2022-07-24T01:36:14;101468.66;;;11.56;88.70
58927;BME280;44712;52.530;9.760;2022-07-24T01:38:40;101465.06;;;11.52;89.19
58927;BME280;44712;52.530;9.760;2022-07-24T01:41:07;101459.66;;;11.51;89.83
58927;BME280;44712;52.530;9.760;2022-07-24T01:43:33;101473.25;;;11.48;89.63
58927;BME280;44712;52.530;9.760;2022-07-24T01:46:00;101469.63;;;11.46;90.27
58927;BME280;44712;52.530;9.760;2022-07-24T01:48:27;101458.81;;;11.43;90.39
58927;BME280;44712;52.530;9.760;2022-07-24T01:50:55;101460.56;;;11.44;90.88
58927;BME280;44712;52.530;9.760;2022-07-24T01:53:22;101455.19;;;11.41;90.94
58927;BME280;44712;52.530;9.760;2022-07-24T01:55:50;101461.50;;;11.39;90.96
58927;BME280;44712;52.530;9.760;2022-07-24T01:58:17;101464.25;;;11.33;90.31
58927;BME280;44712;52.530;9.760;2022-07-24T02:00:45;101466.97;;;11.30;90.42
58927;BME280;44712;52.530;9.760;2022-07-24T02:03:12;101466.09;;;11.28;89.67
58927;BME280;44712;52.530;9.760;2022-07-24T02:05:39;101460.69;;;11.22;89.89
58927;BME280;44712;52.530;9.760;2022-07-24T02:08:06;101465.22;;;11.17;90.57
58927;BME280;44712;52.530;9.760;2022-07-24T02:10:32;101464.34;;;11.15;91.06
58927;BME280;44712;52.530;9.760;2022-07-24T02:12:59;101470.69;;;11.09;90.38
58927;BME280;44712;52.530;9.760;2022-07-24T02:15:27;101467.97;;;11.11;90.80
58927;BME280;44712;52.530;9.760;2022-07-24T02:17:58;101468.88;;;11.02;91.42
58927;BME280;44712;52.530;9.760;2022-07-24T02:20:26;101467.09;;;10.99;91.65
58927;BME280;44712;52.530;9.760;2022-07-24T02:22:53;101462.59;;;10.98;91.77
58927;BME280;44712;52.530;9.760;2022-07-24T02:25:20;101459.84;;;11.03;91.67
58927;BME280;44712;52.530;9.760;2022-07-24T02:27:47;101466.19;;;10.97;91.39
58927;BME280;44712;52.530;9.760;2022-07-24T02:30:18;101459.00;;;10.93;91.74
58927;BME280;44712;52.530;9.760;2022-07-24T02:32:45;101458.97;;;10.90;91.81
58927;BME280;44712;52.530;9.760;2022-07-24T02:35:12;101461.72;;;10.87;92.08
58927;BME280;44712;52.530;9.760;2022-07-24T02:37:41;101459.00;;;10.87;92.10
58927;BME280;44712;52.530;9.760;2022-07-24T02:40:14;101459.94;;;10.81;92.17
58927;BME280;44712;52.530;9.760;2022-07-24T02:42:41;101452.72;;;10.76;91.90
58927;BME280;44712;52.530;9.760;2022-07-24T02:45:08;101459.91;;;10.77;92.38
58927;BME280;44712;52.530;9.760;2022-07-24T02:47:36;101458.13;;;10.69;91.86
58927;BME280;44712;52.530;9.760;2022-07-24T02:50:11;101468.06;;;10.64;92.44
58927;BME280;44712;52.530;9.760;2022-07-24T02:52:38;101470.78;;;10.64;92.57
58927;BME280;44712;52.530;9.760;2022-07-24T02:55:06;101472.59;;;10.65;93.16
58927;BME280;44712;52.530;9.760;2022-07-24T02:57:32;101474.38;;;10.63;93.08
58927;BME280;44712;52.530;9.760;2022-07-24T02:59:59;101468.09;;;10.61;93.39
58927;BME280;44712;52.530;9.760;2022-07-24T03:02:26;101475.31;;;10.62;93.62
58927;BME280;44712;52.530;9.760;2022-07-24T03:04:53;101478.00;;;10.59;94.12
58927;BME280;44712;52.530;9.760;2022-07-24T03:07:19;101477.09;;;10.60;94.22
58927;BME280;44712;52.530;9.760;2022-07-24T03:09:46;101469.91;;;10.62;94.38
58927;BME280;44712;52.530;9.760;2022-07-24T03:12:13;101475.28;;;10.59;94.47
58927;BME280;44712;52.530;9.760;2022-07-24T03:14:39;101475.31;;;10.56;94.51
58927;BME280;44712;52.530;9.760;2022-07-24T03:17:06;101471.69;;;10.54;94.54
58927;BME280;44712;52.530;9.760;2022-07-24T03:19:33;101469.91;;;10.56;94.71
58927;BME280;44712;52.530;9.760;2022-07-24T03:22:02;101473.50;;;10.55;95.28
58927;BME280;44712;52.530;9.760;2022-07-24T03:24:28;101471.69;;;10.54;94.99
58927;BME280;44712;52.530;9.760;2022-07-24T03:26:55;101466.28;;;10.51;94.95
58927;BME280;44712;52.530;9.760;2022-07-24T03:29:22;101461.78;;;10.50;94.67
58927;BME280;44712;52.530;9.760;2022-07-24T03:31:48;101466.31;;;10.48;94.45
58927;BME280;44712;52.530;9.760;2022-07-24T03:34:15;101459.06;;;10.47;94.68
58927;BME280;44712;52.530;9.760;2022-07-24T03:36:42;101465.38;;;10.44;94.37
58927;BME280;44712;52.530;9.760;2022-07-24T03:39:08;101468.13;;;10.40;94.11
58927;BME280;44712;52.530;9.760;2022-07-24T03:41:35;101468.13;;;10.40;94.35
58927;BME280;44712;52.530;9.760;2022-07-24T03:44:02;101461.75;;;10.34;94.16
58927;BME280;44712;52.530;9.760;2022-07-24T03:46:29;101460.88;;;10.35;94.62
58927;BME280;44712;52.530;9.760;2022-07-24T03:48:56;101462.69;;;10.36;94.79
58927;BME280;44712;52.530;9.760;2022-07-24T03:51:23;101468.97;;;10.34;94.98
58927;BME280;44712;52.530;9.760;2022-07-24T03:53:52;101465.38;;;10.32;94.99
58927;BME280;44712;52.530;9.760;2022-07-24T03:56:21;101467.19;;;10.34;95.14
58927;BME280;44712;52.530;9.760;2022-07-24T03:58:56;101467.19;;;10.37;95.26
58927;BME280;44712;52.530;9.760;2022-07-24T04:01:23;101459.09;;;10.37;95.83
58927;BME280;44712;52.530;9.760;2022-07-24T04:03:50;101455.47;;;10.38;95.90
58927;BME280;44712;52.530;9.760;2022-07-24T04:06:16;101463.59;;;10.38;95.68
58927;BME280;44712;52.530;9.760;2022-07-24T04:08:43;101462.69;;;10.43;95.76
58927;BME280;44712;52.530;9.760;2022-07-24T04:11:10;101462.69;;;10.40;95.61
58927;BME280;44712;52.530;9.760;2022-07-24T04:13:36;101470.81;;;10.41;95.89
58927;BME280;44712;52.530;9.760;2022-07-24T04:16:09;101466.28;;;10.42;96.05
58927;BME280;44712;52.530;9.760;2022-07-24T04:18:35;101468.09;;;10.43;95.86
58927;BME280;44712;52.530;9.760;2022-07-24T04:21:02;101463.59;;;10.42;95.98
58927;BME280;44712;52.530;9.760;2022-07-24T04:23:29;101459.06;;;10.41;95.57
58927;BME280;44712;52.530;9.760;2022-07-24T04:25:56;101465.41;;;10.43;95.66
58927;BME280;44712;52.530;9.760;2022-07-24T04:28:23;101469.91;;;10.44;95.91
58927;BME280;44712;52.530;9.760;2022-07-24T04:30:49;101466.31;;;10.46;96.36
58927;BME280;44712;52.530;9.760;2022-07-24T04:33:16;101464.50;;;10.47;96.13
58927;BME280;44712;52.530;9.760;2022-07-24T04:35:43;101458.19;;;10.48;96.19
58927;BME280;44712;52.530;9.760;2022-07-24T04:38:10;101460.88;;;10.51;96.59
58927;BME280;44712;52.530;9.760;2022-07-24T04:40:36;101459.09;;;10.53;96.85
58927;BME280;44712;52.530;9.760;2022-07-24T04:43:03;101459.94;;;10.57;97.02
58927;BME280;44712;52.530;9.760;2022-07-24T04:45:30;101450.94;;;10.62;97.29
58927;BME280;44712;52.530;9.760;2022-07-24T04:48:01;101457.22;;;10.67;97.23
58927;BME280;44712;52.530;9.760;2022-07-24T04:50:29;101459.94;;;10.74;97.34
58927;BME280;44712;52.530;9.760;2022-07-24T04:52:56;101455.38;;;10.85;97.65
58927;BME280;44712;52.530;9.760;2022-07-24T04:55:23;101463.47;;;11.05;98.51
58927;BME280;44712;52.530;9.760;2022-07-24T04:57:52;101460.66;;;11.28;99.48
58927;BME280;44712;52.530;9.760;2022-07-24T05:00:19;101460.59;;;11.47;99.72
58927;BME280;44712;52.530;9.760;2022-07-24T05:02:46;101454.16;;;11.62;100.00
58927;BME280;44712;52.530;9.760;2022-07-24T05:05:12;101454.97;;;11.78;99.92
58927;BME280;44712;52.530;9.760;2022-07-24T05:07:40;101461.22;;;11.87;99.84
58927;BME280;44712;52.530;9.760;2022-07-24T05:10:07;101454.88;;;11.96;99.59
58927;BME280;44712;52.530;9.760;2022-07-24T05:12:33;101449.34;;;12.09;100.00
58927;BME280;44712;52.530;9.760;2022-07-24T05:15:00;101451.09;;;12.19;99.91
58927;BME280;44712;52.530;9.760;2022-07-24T05:17:27;101451.88;;;12.30;99.73
58927;BME280;44712;52.530;9.760;2022-07-24T05:19:53;101456.34;;;12.41;99.79
58927;BME280;44712;52.530;9.760;2022-07-24T05:22:20;101458.91;;;12.53;99.35
58927;BME280;44712;52.530;9.760;2022-07-24T05:24:47;101452.50;;;12.63;99.21
58927;BME280;44712;52.530;9.760;2022-07-24T05:27:13;101460.53;;;12.74;98.91
58927;BME280;44712;52.530;9.760;2022-07-24T05:29:40;101461.34;;;12.85;99.04
58927;BME280;44712;52.530;9.760;2022-07-24T05:32:08;101462.06;;;13.00;98.49
58927;BME280;44712;52.530;9.760;2022-07-24T05:34:34;101461.91;;;13.14;98.27
58927;BME280;44712;52.530;9.760;2022-07-24T05:37:07;101457.22;;;13.28;97.95
58927;BME280;44712;52.530;9.760;2022-07-24T05:39:34;101455.22;;;13.43;97.58
58927;BME280;44712;52.530;9.760;2022-07-24T05:42:01;101453.09;;;13.66;97.02
58927;BME280;44712;52.530;9.760;2022-07-24T05:44:27;101458.31;;;13.82;96.74
58927;BME280;44712;52.530;9.760;2022-07-24T05:46:54;101452.63;;;13.97;96.03
58927;BME280;44712;52.530;9.760;2022-07-24T05:49:21;101450.53;;;14.15;95.40
58927;BME280;44712;52.530;9.760;2022-07-24T05:51:48;101450.22;;;14.33;94.72
58927;BME280;44712;52.530;9.760;2022-07-24T05:54:14;101453.50;;;14.54;93.87
58927;BME280;44712;52.530;9.760;2022-07-24T05:56:41;101449.59;;;14.70;92.97
58927;BME280;44712;52.530;9.760;2022-07-24T05:59:08;101443.72;;;14.92;91.86
58927;BME280;44712;52.530;9.760;2022-07-24T06:01:35;101438.72;;;15.16;90.45
58927;BME280;44712;52.530;9.760;2022-07-24T06:04:02;101444.50;;;15.43;90.34
58927;BME280;44712;52.530;9.760;2022-07-24T06:06:29;101438.72;;;15.58;87.95
58927;BME280;44712;52.530;9.760;2022-07-24T06:08:55;101436.41;;;15.79;85.70
58927;BME280;44712;52.530;9.760;2022-07-24T06:11:22;101431.50;;;15.95;83.96
58927;BME280;44712;52.530;9.760;2022-07-24T06:13:50;101426.50;;;16.14;84.08
58927;BME280;44712;52.530;9.760;2022-07-24T06:16:17;101428.47;;;16.43;81.22
58927;BME280;44712;52.530;9.760;2022-07-24T06:18:44;101428.31;;;16.49;81.31
58927;BME280;44712;52.530;9.760;2022-07-24T06:21:11;101423.44;;;16.62;81.17
58927;BME280;44712;52.530;9.760;2022-07-24T06:23:37;101419.41;;;16.76;79.64
58927;BME280;44712;52.530;9.760;2022-07-24T06:26:04;101415.41;;;16.89;79.62
58927;BME280;44712;52.530;9.760;2022-07-24T06:28:31;101409.41;;;17.07;79.45
58927;BME280;44712;52.530;9.760;2022-07-24T06:30:57;101405.19;;;17.27;78.06
58927;BME280;44712;52.530;9.760;2022-07-24T06:33:25;101410.97;;;17.46;77.24
58927;BME280;44712;52.530;9.760;2022-07-24T06:35:54;101414.00;;;17.67;75.47
58927;BME280;44712;52.530;9.760;2022-07-24T06:38:21;101410.63;;;17.87;73.80
58927;BME280;44712;52.530;9.760;2022-07-24T06:40:48;101397.28;;;18.04;73.84
58927;BME280;44712;52.530;9.760;2022-07-24T06:43:14;101407.75;;;18.20;71.66
58927;BME280;44712;52.530;9.760;2022-07-24T06:45:42;101383.53;;;18.33;71.74
58927;BME280;44712;52.530;9.760;2022-07-24T06:48:09;101394.03;;;18.47;70.80
58927;BME280;44712;52.530;9.760;2022-07-24T06:50:36;101395.25;;;18.63;69.91
58927;BME280;44712;52.530;9.760;2022-07-24T06:53:03;101390.16;;;18.78;69.26
58927;BME280;44712;52.530;9.760;2022-07-24T06:55:29;101387.84;;;18.92;68.19
58927;BME280;44712;52.530;9.760;2022-07-24T06:57:56;101390.91;;;19.08;67.56
58927;BME280;44712;52.530;9.760;2022-07-24T07:00:23;101394.91;;;19.23;67.69
58927;BME280;44712;52.530;9.760;2022-07-24T07:02:53;101393.81;;;19.51;67.46
58927;BME280;44712;52.530;9.760;2022-07-24T07:05:19;101394.03;;;19.68;66.14
58927;BME280;44712;52.530;9.760;2022-07-24T07:07:46;101394.34;;;19.83;64.57
58927;BME280;44712;52.530;9.760;2022-07-24T07:10:13;101390.03;;;19.99;64.62
58927;BME280;44712;52.530;9.760;2022-07-24T07:12:40;101392.97;;;20.17;65.11
58927;BME280;44712;52.530;9.760;2022-07-24T07:15:09;101387.28;;;20.42;64.77
58927;BME280;44712;52.530;9.760;2022-07-24T07:17:40;101392.09;;;20.57;63.18
58927;BME280;44712;52.530;9.760;2022-07-24T07:20:10;101403.22;;;20.77;62.06
58927;BME280;44712;52.530;9.760;2022-07-24T07:22:37;101397.59;;;20.99;61.59
58927;BME280;44712;52.530;9.760;2022-07-24T07:25:04;101406.72;;;21.20;60.45
58927;BME280;44712;52.530;9.760;2022-07-24T07:27:32;101402.59;;;21.30;59.09
58927;BME280;44712;52.530;9.760;2022-07-24T07:29:58;101400.78;;;21.48;58.32
58927;BME280;44712;52.530;9.760;2022-07-24T07:32:25;101397.53;;;21.59;57.54
58927;BME280;44712;52.530;9.760;2022-07-24T07:34:52;101392.47;;;21.88;59.04
58927;BME280;44712;52.530;9.760;2022-07-24T07:37:19;101390.72;;;22.04;57.39
58927;BME280;44712;52.530;9.760;2022-07-24T07:39:46;101380.16;;;22.32;55.78
58927;BME280;44712;52.530;9.760;2022-07-24T07:42:13;101380.75;;;22.38;55.15
58927;BME280;44712;52.530;9.760;2022-07-24T07:44:40;101381.22;;;22.64;54.79
58927;BME280;44712;52.530;9.760;2022-07-24T07:47:06;101389.97;;;22.72;53.50
58927;BME280;44712;52.530;9.760;2022-07-24T07:49:33;101402.69;;;22.93;53.45
58927;BME280;44712;52.530;9.760;2022-07-24T07:52:00;101394.63;;;22.72;52.03
58927;BME280;44712;52.530;9.760;2022-07-24T07:54:27;101396.16;;;23.11;52.93
58927;BME280;44712;52.530;9.760;2022-07-24T07:56:54;101395.16;;;23.30;51.31
58927;BME280;44712;52.530;9.760;2022-07-24T07:59:21;101393.03;;;23.35;51.45
58927;BME280;44712;52.530;9.760;2022-07-24T08:01:47;101387.72;;;23.48;51.25
58927;BME280;44712;52.530;9.760;2022-07-24T08:04:14;101388.81;;;23.61;50.63
58927;BME280;44712;52.530;9.760;2022-07-24T08:06:44;101385.13;;;23.77;49.14
58927;BME280;44712;52.530;9.760;2022-07-24T08:09:13;101377.75;;;23.77;48.38
58927;BME280;44712;52.530;9.760;2022-07-24T08:11:39;101380.34;;;23.96;48.64
58927;BME280;44712;52.530;9.760;2022-07-24T08:14:06;101376.00;;;24.22;48.31
58927;BME280;44712;52.530;9.760;2022-07-24T08:16:33;101385.38;;;24.36;47.83
58927;BME280;44712;52.530;9.760;2022-07-24T08:18:59;101381.19;;;24.59;47.61
58927;BME280;44712;52.530;9.760;2022-07-24T08:21:26;101383.53;;;24.51;46.62
58927;BME280;44712;52.530;9.760;2022-07-24T08:23:54;101383.69;;;24.64;47.87
58927;BME280;44712;52.530;9.760;2022-07-24T08:26:21;101389.16;;;24.94;46.06
58927;BME280;44712;52.530;9.760;2022-07-24T08:28:48;101378.31;;;25.05;45.42
58927;BME280;44712;52.530;9.760;2022-07-24T08:31:14;101380.56;;;25.28;45.29
58927;BME280;44712;52.530;9.760;2022-07-24T08:33:41;101376.13;;;25.11;45.37
58927;BME280;44712;52.530;9.760;2022-07-24T08:36:08;101379.38;;;25.17;45.65
58927;BME280;44712;52.530;9.760;2022-07-24T08:38:35;101375.13;;;25.26;44.82
58927;BME280;44712;52.530;9.760;2022-07-24T08:41:03;101372.59;;;25.37;44.77
58927;BME280;44712;52.530;9.760;2022-07-24T08:43:29;101376.72;;;25.59;44.79
58927;BME280;44712;52.530;9.760;2022-07-24T08:45:57;101369.13;;;25.90;44.13
58927;BME280;44712;52.530;9.760;2022-07-24T08:48:27;101363.47;;;25.64;43.40
58927;BME280;44712;52.530;9.760;2022-07-24T08:50:54;101368.88;;;25.80;43.64
58927;BME280;44712;52.530;9.760;2022-07-24T08:53:22;101367.69;;;26.12;43.13
58927;BME280;44712;52.530;9.760;2022-07-24T08:55:51;101369.13;;;26.17;42.98
58927;BME280;44712;52.530;9.760;2022-07-24T08:58:17;101361.56;;;25.92;42.13
58927;BME280;44712;52.530;9.760;2022-07-24T09:00:44;101358.31;;;26.27;43.42
58927;BME280;44712;52.530;9.760;2022-07-24T09:03:11;101355.44;;;26.42;43.29
58927;BME280;44712;52.530;9.760;2022-07-24T09:05:58;101359.84;;;26.71;41.35
58927;BME280;44712;52.530;9.760;2022-07-24T09:08:25;101354.47;;;26.68;42.00
58927;BME280;44712;52.530;9.760;2022-07-24T09:10:56;101354.59;;;26.54;41.25
58927;BME280;44712;52.530;9.760;2022-07-24T09:13:27;101356.25;;;26.69;41.67
58927;BME280;44712;52.530;9.760;2022-07-24T09:15:56;101349.19;;;26.78;40.50
58927;BME280;44712;52.530;9.760;2022-07-24T09:18:41;101364.75;;;26.81;40.84
58927;BME280;44712;52.530;9.760;2022-07-24T09:21:15;101361.97;;;26.81;40.85
58927;BME280;44712;52.530;9.760;2022-07-24T09:23:44;101359.63;;;27.13;40.13
58927;BME280;44712;52.530;9.760;2022-07-24T09:26:11;101364.06;;;27.16;39.74
58927;BME280;44712;52.530;9.760;2022-07-24T09:28:49;101356.50;;;27.44;40.51
58927;BME280;44712;52.530;9.760;2022-07-24T09:31:17;101363.88;;;27.69;39.60
58927;BME280;44712;52.530;9.760;2022-07-24T09:33:44;101355.75;;;27.66;38.71
58927;BME280;44712;52.530;9.760;2022-07-24T09:36:12;101353.03;;;27.90;39.26
58927;BME280;44712;52.530;9.760;2022-07-24T09:38:46;101353.59;;;27.82;38.52
58927;BME280;44712;52.530;9.760;2022-07-24T09:41:22;101349.34;;;27.52;39.49
58927;BME280;44712;52.530;9.760;2022-07-24T09:43:57;101345.16;;;27.84;38.69
58927;BME280;44712;52.530;9.760;2022-07-24T09:46:26;101349.22;;;27.91;38.41
58927;BME280;44712;52.530;9.760;2022-07-24T09:48:59;101342.25;;;28.10;38.58
58927;BME280;44712;52.530;9.760;2022-07-24T09:51:27;101348.91;;;28.20;37.96
58927;BME280;44712;52.530;9.760;2022-07-24T09:53:57;101338.81;;;28.30;37.84
58927;BME280;44712;52.530;9.760;2022-07-24T09:56:24;101346.44;;;28.15;37.71
58927;BME280;44712;52.530;9.760;2022-07-24T09:58:56;101351.16;;;28.15;38.19
58927;BME280;44712;52.530;9.760;2022-07-24T10:01:25;101344.88;;;28.24;38.06
58927;BME280;44712;52.530;9.760;2022-07-24T10:03:53;101342.63;;;28.29;38.26
58927;BME280;44712;52.530;9.760;2022-07-24T10:06:25;101332.84;;;28.23;37.62
58927;BME280;44712;52.530;9.760;2022-07-24T10:08:53;101326.66;;;28.31;36.96
58927;BME280;44712;52.530;9.760;2022-07-24T10:11:21;101336.59;;;28.58;36.45
58927;BME280;44712;52.530;9.760;2022-07-24T10:13:48;101331.69;;;28.50;36.60
58927;BME280;44712;52.530;9.760;2022-07-24T10:16:31;101322.28;;;28.76;36.73
58927;BME280;44712;52.530;9.760;2022-07-24T10:19:03;101322.75;;;28.81;35.93
58927;BME280;44712;52.530;9.760;2022-07-24T10:21:36;101318.69;;;28.62;36.41
58927;BME280;44712;52.530;9.760;2022-07-24T10:29:21;101306.06;;;29.15;35.96
58927;BME280;44712;52.530;9.760;2022-07-24T10:31:52;101301.38;;;29.15;35.71
58927;BME280;44712;52.530;9.760;2022-07-24T10:43:07;101290.59;;;29.22;35.09
58927;BME280;44712;52.530;9.760;2022-07-24T10:59:01;101285.25;;;29.53;33.61
58927;BME280;44712;52.530;9.760;2022-07-24T11:01:52;101287.28;;;29.62;33.92
58927;BME280;44712;52.530;9.760;2022-07-24T11:09:23;101273.88;;;29.22;34.61
58927;BME280;44712;52.530;9.760;2022-07-24T11:17:41;101268.03;;;29.59;34.11
58927;BME280;44712;52.530;9.760;2022-07-24T11:20:13;101254.38;;;29.22;33.33
58927;BME280;44712;52.530;9.760;2022-07-24T11:22:49;101262.84;;;29.54;33.10
58927;BME280;44712;52.530;9.760;2022-07-24T11:25:21;101256.66;;;29.51;33.04
58927;BME280;44712;52.530;9.760;2022-07-24T11:28:11;101260.81;;;29.56;33.88
58927;BME280;44712;52.530;9.760;2022-07-24T11:30:42;101259.53;;;29.61;33.39
58927;BME280;44712;52.530;9.760;2022-07-24T11:33:11;101259.81;;;29.90;34.78
58927;BME280;44712;52.530;9.760;2022-07-24T11:35:38;101254.22;;;30.01;33.18
58927;BME280;44712;52.530;9.760;2022-07-24T11:38:07;101255.97;;;30.02;32.62
58927;BME280;44712;52.530;9.760;2022-07-24T11:40:35;101262.38;;;29.93;32.63
58927;BME280;44712;52.530;9.760;2022-07-24T11:43:04;101252.44;;;30.00;33.10
58927;BME280;44712;52.530;9.760;2022-07-24T11:45:37;101238.41;;;30.12;33.60
58927;BME280;44712;52.530;9.760;2022-07-24T11:48:05;101240.78;;;29.95;33.19
58927;BME280;44712;52.530;9.760;2022-07-24T11:50:32;101230.28;;;29.87;33.55
58927;BME280;44712;52.530;9.760;2022-07-24T11:53:05;101222.56;;;29.80;33.94
58927;BME280;44712;52.530;9.760;2022-07-24T11:55:35;101216.97;;;29.80;33.68
58927;BME280;44712;52.530;9.760;2022-07-24T11:58:01;101219.03;;;29.78;33.68
58927;BME280;44712;52.530;9.760;2022-07-24T12:00:48;101219.31;;;29.75;33.48
58927;BME280;44712;52.530;9.760;2022-07-24T12:03:14;101218.31;;;29.64;33.39
58927;BME280;44712;52.530;9.760;2022-07-24T12:05:41;101208.03;;;29.65;33.13
58927;BME280;44712;52.530;9.760;2022-07-24T12:08:21;101210.19;;;29.72;33.33
58927;BME280;44712;52.530;9.760;2022-07-24T12:10:57;101207.09;;;29.87;33.96
58927;BME280;44712;52.530;9.760;2022-07-24T12:13:25;101198.22;;;29.82;33.34
58927;BME280;44712;52.530;9.760;2022-07-24T12:15:52;101198.63;;;29.77;32.95
58927;BME280;44712;52.530;9.760;2022-07-24T12:18:18;101190.16;;;29.67;33.04
58927;BME280;44712;52.530;9.760;2022-07-24T12:21:01;101197.25;;;29.71;32.98
58927;BME280;44712;52.530;9.760;2022-07-24T12:23:29;101182.66;;;29.47;32.43
58927;BME280;44712;52.530;9.760;2022-07-24T12:25:56;101175.31;;;29.46;32.48
58927;BME280;44712;52.530;9.760;2022-07-24T12:28:25;101177.16;;;29.56;34.48
58927;BME280;44712;52.530;9.760;2022-07-24T12:30:56;101174.00;;;29.61;33.33
58927;BME280;44712;52.530;9.760;2022-07-24T12:33:24;101182.28;;;29.72;33.41
58927;BME280;44712;52.530;9.760;2022-07-24T12:36:07;101174.19;;;29.69;33.69
58927;BME280;44712;52.530;9.760;2022-07-24T12:38:54;101162.94;;;29.60;33.21
58927;BME280;44712;52.530;9.760;2022-07-24T12:41:22;101163.88;;;29.49;33.20
58927;BME280;44712;52.530;9.760;2022-07-24T12:43:52;101155.00;;;29.55;33.43
58927;BME280;44712;52.530;9.760;2022-07-24T12:46:24;101146.97;;;29.62;34.35
58927;BME280;44712;52.530;9.760;2022-07-24T12:51:22;101148.53;;;29.76;33.48
58927;BME280;44712;52.530;9.760;2022-07-24T12:53:53;101147.16;;;29.81;33.68
58927;BME280;44712;52.530;9.760;2022-07-24T12:56:21;101140.63;;;29.60;34.34
58927;BME280;44712;52.530;9.760;2022-07-24T12:58:56;101142.44;;;29.82;34.57
58927;BME280;44712;52.530;9.760;2022-07-24T13:01:26;101138.88;;;29.91;33.79
58927;BME280;44712;52.530;9.760;2022-07-24T13:04:03;101142.41;;;29.93;33.77
58927;BME280;44712;52.530;9.760;2022-07-24T13:06:41;101138.38;;;29.86;33.64
58927;BME280;44712;52.530;9.760;2022-07-24T13:09:10;101136.38;;;29.88;33.87
58927;BME280;44712;52.530;9.760;2022-07-24T13:11:38;101134.63;;;29.97;33.55
58927;BME280;44712;52.530;9.760;2022-07-24T13:14:06;101132.75;;;29.97;33.04
58927;BME280;44712;52.530;9.760;2022-07-24T13:16:36;101136.91;;;30.03;32.89
58927;BME280;44712;52.530;9.760;2022-07-24T13:19:05;101140.84;;;30.00;33.32
58927;BME280;44712;52.530;9.760;2022-07-24T13:21:32;101137.56;;;29.95;33.00
58927;BME280;44712;52.530;9.760;2022-07-24T13:23:58;101125.69;;;29.93;33.18
58927;BME280;44712;52.530;9.760;2022-07-24T13:26:26;101124.56;;;29.84;33.64
58927;BME280;44712;52.530;9.760;2022-07-24T13:28:53;101126.94;;;29.89;34.08
58927;BME280;44712;52.530;9.760;2022-07-24T13:31:20;101121.13;;;29.92;34.12
58927;BME280;44712;52.530;9.760;2022-07-24T13:33:47;101118.22;;;30.03;32.93
58927;BME280;44712;52.530;9.760;2022-07-24T13:36:17;101116.28;;;30.25;33.09
58927;BME280;44712;52.530;9.760;2022-07-24T13:38:45;101122.88;;;30.45;32.86